aviador You're here:

KMCX Decoded Metar

in
Report Time2017-04-25 20:15:00
UTC Time2017-04-25 20:11:26
Flight Rules vfr VFR
Wind150° at 07 kt
W.Decomp.*RWY 18: 6.1 kt HW 3.5 kt LCW
W.Rank150° ranks 18
Current wind is above 150° avg. (4.8)
Visibility9999 m
Phenomena:N/A
Clouds:N/A
Expected CloudBase > 5,600 ft AGL from Temp-Dew spread
CeilingNone
Temp25°C
Dew Point11°C (42% RH)
AAT22.9°C
QNH1004 hPa
Raw Report
METAR KMCX 252015Z AUTO 15007KT 10SM CLR 25/11 A2966 RMK AO2
T02450106=

Extra information for KMCX:More info

Social comments